Time;durP1;ratioP1;P1;durP2;ratioP2;P2;SDS_P1;SDS_P2;PMS_P1;PMS_P2;Temp;Humidity;BMP_temperature;BMP_pressure;BME280_temperature;BME280_humidity;BME280_pressure;Samples;Min_cycle;Max_cycle;Signal;HPM_P1;HPM_P2
2024/04/06 00:00:30;;;;;;;;;;;18.40;60.20;;;;;;4993862;28;19995;-77
2024/04/06 00:02:56;;;;;;;;;;;18.40;60.50;;;;;;4993708;28;19948;-77
2024/04/06 00:05:21;;;;;;;;;;;18.40;60.40;;;;;;4993459;28;20349;-77
2024/04/06 00:07:47;;;;;;;;;;;18.40;60.70;;;;;;4993192;28;20024;-77
2024/04/06 00:10:13;;;;;;;;;;;19.00;61.00;;;;;;4992829;28;19937;-78
2024/04/06 00:12:39;;;;;;;;;;;18.30;60.40;;;;;;4993496;28;19964;-78
2024/04/06 00:15:05;;;;;;;;;;;18.30;60.50;;;;;;4993297;28;20278;-77
2024/04/06 00:17:32;;;;;;;;;;;18.30;60.50;;;;;;4993252;28;20328;-78
2024/04/06 00:19:58;;;;;;;;;;;18.30;60.40;;;;;;4993177;28;20364;-78
2024/04/06 00:22:24;;;;;;;;;;;18.30;60.60;;;;;;4993166;28;19914;-77
2024/04/06 00:24:50;;;;;;;;;;;18.30;60.60;;;;;;4993138;28;19944;-77
2024/04/06 00:27:16;;;;;;;;;;;18.40;60.00;;;;;;4993447;28;19925;-74
2024/04/06 00:29:42;;;;;;;;;;;18.30;60.70;;;;;;4992987;28;19972;-74
2024/04/06 00:32:08;;;;;;;;;;;18.30;60.80;;;;;;4993203;28;19910;-74
2024/04/06 00:34:34;;;;;;;;;;;18.30;60.70;;;;;;4993258;28;19910;-72
2024/04/06 00:37:01;;;;;;;;;;;18.30;60.00;;;;;;4992615;28;20405;-74
2024/04/06 00:39:28;;;;;;;;;;;18.30;60.80;;;;;;4993159;28;20284;-74
2024/04/06 00:41:54;;;;;;;;;;;18.30;60.50;;;;;;4993037;28;19917;-74
2024/04/06 00:44:22;;;;;;;;;;;18.30;60.60;;;;;;4992821;28;19910;-74
2024/04/06 00:46:49;;;;;;;;;;;18.30;60.60;;;;;;4992932;28;19918;-74
2024/04/06 00:49:15;;;;;;;;;;;18.30;60.70;;;;;;4993134;28;20280;-74
2024/04/06 00:51:41;;;;;;;;;;;18.30;60.80;;;;;;4992743;28;19910;-74
2024/04/06 00:54:07;;;;;;;;;;;18.30;60.80;;;;;;4993000;28;19914;-73
2024/04/06 00:56:33;;;;;;;;;;;18.30;60.70;;;;;;4992985;28;19910;-74
2024/04/06 00:58:58;;;;;;;;;;;18.30;60.70;;;;;;4992891;28;19914;-77
2024/04/06 01:01:24;;;;;;;;;;;18.30;60.70;;;;;;4992949;28;19953;-77
2024/04/06 01:03:50;;;;;;;;;;;18.30;60.70;;;;;;4992848;28;19996;-77
2024/04/06 01:06:16;;;;;;;;;;;18.30;60.80;;;;;;4992516;28;19925;-77
2024/04/06 01:08:42;;;;;;;;;;;18.30;60.80;;;;;;4992663;28;20001;-77
2024/04/06 01:11:07;;;;;;;;;;;18.30;60.80;;;;;;4992494;28;20269;-77
2024/04/06 01:13:33;;;;;;;;;;;18.30;60.70;;;;;;4993075;28;19910;-74
2024/04/06 01:15:59;;;;;;;;;;;18.30;60.60;;;;;;4992747;28;19914;-74
2024/04/06 01:18:25;;;;;;;;;;;18.30;60.90;;;;;;4992709;28;19979;-74
2024/04/06 01:20:53;;;;;;;;;;;18.30;60.80;;;;;;4993750;28;20280;-74
2024/04/06 01:23:19;;;;;;;;;;;18.30;60.70;;;;;;4996711;28;19917;-74
2024/04/06 01:25:45;;;;;;;;;;;18.30;61.00;;;;;;4996836;28;19910;-73
2024/04/06 01:28:11;;;;;;;;;;;18.20;60.70;;;;;;4996530;28;20280;-74
2024/04/06 01:30:37;;;;;;;;;;;18.30;60.80;;;;;;4996604;28;19992;-74
2024/04/06 01:33:03;;;;;;;;;;;18.30;61.00;;;;;;4996543;28;20383;-74
2024/04/06 01:35:29;;;;;;;;;;;18.20;60.70;;;;;;4996309;28;19929;-74
2024/04/06 01:37:55;;;;;;;;;;;18.30;60.30;;;;;;4996021;28;19922;-74
2024/04/06 01:40:21;;;;;;;;;;;18.20;60.80;;;;;;4996472;28;19968;-74
2024/04/06 01:42:47;;;;;;;;;;;18.20;60.80;;;;;;4996603;28;19957;-74
2024/04/06 01:45:13;;;;;;;;;;;18.20;61.10;;;;;;4996359;28;19957;-74
2024/04/06 01:47:39;;;;;;;;;;;18.40;61.00;;;;;;4995870;28;20327;-74
2024/04/06 01:50:06;;;;;;;;;;;18.20;60.90;;;;;;4996016;28;19917;-74
2024/04/06 01:52:32;;;;;;;;;;;18.20;60.80;;;;;;4995959;28;19910;-74
2024/04/06 01:55:02;;;;;;;;;;;18.20;60.90;;;;;;4995984;28;20495;-74
2024/04/06 01:57:27;;;;;;;;;;;18.20;60.50;;;;;;4995703;28;19961;-74
2024/04/06 01:59:53;;;;;;;;;;;18.20;61.00;;;;;;4996056;28;20277;-74
2024/04/06 02:02:19;;;;;;;;;;;18.20;60.90;;;;;;4995684;28;19910;-74
2024/04/06 02:04:46;;;;;;;;;;;18.20;60.90;;;;;;4995982;28;19910;-74
2024/04/06 02:07:15;;;;;;;;;;;18.20;61.00;;;;;;4995874;28;19925;-74
2024/04/06 02:09:40;;;;;;;;;;;18.20;60.50;;;;;;4995661;28;19914;-74
2024/04/06 02:12:06;;;;;;;;;;;18.20;61.10;;;;;;4996199;28;19920;-74
2024/04/06 02:14:32;;;;;;;;;;;18.20;61.10;;;;;;4995802;28;19965;-74
2024/04/06 02:16:59;;;;;;;;;;;18.20;61.00;;;;;;4995744;28;19910;-74
2024/04/06 02:19:25;;;;;;;;;;;18.20;61.00;;;;;;4995753;28;19910;-74
2024/04/06 02:21:51;;;;;;;;;;;18.20;61.20;;;;;;4995427;28;19916;-74
2024/04/06 02:24:20;;;;;;;;;;;18.20;61.10;;;;;;4995555;28;19921;-78
2024/04/06 02:26:46;;;;;;;;;;;18.20;60.80;;;;;;4995544;28;19956;-77
2024/04/06 02:29:12;;;;;;;;;;;18.20;61.10;;;;;;4995222;28;19909;-77
2024/04/06 02:31:37;;;;;;;;;;;18.20;61.20;;;;;;4995160;28;19917;-78
2024/04/06 02:34:04;;;;;;;;;;;18.10;61.20;;;;;;4994304;28;20364;-77
2024/04/06 02:36:29;;;;;;;;;;;18.00;60.30;;;;;;4994757;28;19909;-78
2024/04/06 02:38:55;;;;;;;;;;;18.20;61.30;;;;;;4995812;28;19910;-78
2024/04/06 02:41:20;;;;;;;;;;;18.20;61.20;;;;;;4994897;28;19920;-77
2024/04/06 02:43:46;;;;;;;;;;;18.20;61.30;;;;;;4994921;28;19914;-78
2024/04/06 02:46:11;;;;;;;;;;;18.10;61.20;;;;;;4994750;28;19913;-77
2024/04/06 02:48:37;;;;;;;;;;;18.10;61.20;;;;;;4994925;28;20301;-78
2024/04/06 02:51:03;;;;;;;;;;;18.20;60.70;;;;;;4995219;28;19945;-77
2024/04/06 02:53:29;;;;;;;;;;;18.20;61.30;;;;;;4995068;28;19910;-77
2024/04/06 02:55:56;;;;;;;;;;;18.20;61.10;;;;;;4994723;28;19910;-77
2024/04/06 02:58:22;;;;;;;;;;;18.10;61.20;;;;;;4995000;28;19914;-77
2024/04/06 03:00:48;;;;;;;;;;;18.20;61.30;;;;;;4995064;28;19910;-77
2024/04/06 03:03:15;;;;;;;;;;;18.20;61.20;;;;;;4994661;28;19965;-77
2024/04/06 03:05:41;;;;;;;;;;;18.10;61.20;;;;;;4994894;28;20288;-77
2024/04/06 03:08:07;;;;;;;;;;;18.10;61.00;;;;;;4994968;28;19922;-74
2024/04/06 03:10:33;;;;;;;;;;;18.10;61.20;;;;;;4994429;28;20008;-74
2024/04/06 03:12:59;;;;;;;;;;;18.10;61.20;;;;;;4994785;28;19948;-74
2024/04/06 03:15:25;;;;;;;;;;;18.10;61.20;;;;;;4994620;28;19910;-74
2024/04/06 03:17:52;;;;;;;;;;;18.10;61.30;;;;;;4994616;28;20366;-74
2024/04/06 03:20:17;;;;;;;;;;;18.10;61.10;;;;;;4994747;28;20278;-77
2024/04/06 03:22:59;;;;;;;;;;;18.10;61.50;;;;;;4994239;28;19910;-77
2024/04/06 03:25:29;;;;;;;;;;;18.10;61.10;;;;;;4994534;28;19949;-78
2024/04/06 03:27:55;;;;;;;;;;;18.10;61.10;;;;;;4994377;28;19925;-78
2024/04/06 03:30:21;;;;;;;;;;;18.10;61.90;;;;;;4994417;28;19909;-78
2024/04/06 03:32:48;;;;;;;;;;;18.10;61.20;;;;;;4994390;28;19913;-77
2024/04/06 03:35:13;;;;;;;;;;;18.10;61.00;;;;;;4994349;28;20333;-78
2024/04/06 03:37:39;;;;;;;;;;;18.10;60.50;;;;;;4994419;28;19980;-78
2024/04/06 03:40:06;;;;;;;;;;;18.10;61.10;;;;;;4994005;28;19945;-77
2024/04/06 03:42:33;;;;;;;;;;;18.10;61.00;;;;;;4993864;28;19910;-78
2024/04/06 03:44:59;;;;;;;;;;;18.10;60.90;;;;;;4993703;28;19910;-77
2024/04/06 03:47:27;;;;;;;;;;;18.10;61.40;;;;;;4993732;28;19948;-78
2024/04/06 03:49:55;;;;;;;;;;;18.10;61.00;;;;;;4993047;28;20398;-78
2024/04/06 03:52:21;;;;;;;;;;;18.00;61.10;;;;;;4994029;28;19957;-77
2024/04/06 03:54:47;;;;;;;;;;;18.10;61.20;;;;;;4993920;28;19914;-77
2024/04/06 03:57:13;;;;;;;;;;;18.00;61.10;;;;;;4993649;28;20234;-78
2024/04/06 03:59:39;;;;;;;;;;;18.10;61.10;;;;;;4993676;28;19926;-81
2024/04/06 04:02:05;;;;;;;;;;;18.00;61.00;;;;;;4993471;28;19910;-78
2024/04/06 04:04:31;;;;;;;;;;;18.00;60.90;;;;;;4993896;28;19940;-81
2024/04/06 04:06:56;;;;;;;;;;;18.00;61.00;;;;;;4993624;28;20004;-81
2024/04/06 04:09:22;;;;;;;;;;;18.00;61.00;;;;;;4993559;28;19909;-79
2024/04/06 04:11:48;;;;;;;;;;;18.00;60.90;;;;;;4993332;28;19910;-78
2024/04/06 04:14:13;;;;;;;;;;;18.00;61.00;;;;;;5008554;28;20353;-78
2024/04/06 04:16:39;;;;;;;;;;;18.00;61.00;;;;;;4993517;28;20009;-78
2024/04/06 04:19:04;;;;;;;;;;;18.00;61.00;;;;;;4993775;28;19932;-77
2024/04/06 04:21:30;;;;;;;;;;;18.00;61.00;;;;;;4993295;28;19910;-77
2024/04/06 04:23:56;;;;;;;;;;;18.00;61.10;;;;;;4993247;28;19909;-78
2024/04/06 04:26:22;;;;;;;;;;;18.00;61.10;;;;;;5008552;28;19910;-78
2024/04/06 04:28:48;;;;;;;;;;;18.00;60.90;;;;;;4993157;28;19968;-77
2024/04/06 04:31:17;;;;;;;;;;;18.00;61.10;;;;;;4993508;28;19909;-77
2024/04/06 04:33:43;;;;;;;;;;;18.00;60.80;;;;;;4993845;28;19964;-78
2024/04/06 04:36:12;;;;;;;;;;;18.00;60.30;;;;;;4993275;28;19909;-77
2024/04/06 04:38:39;;;;;;;;;;;17.90;60.90;;;;;;4993172;28;20020;-78
2024/04/06 04:41:05;;;;;;;;;;;17.90;61.00;;;;;;4992937;28;20216;-78
2024/04/06 04:43:31;;;;;;;;;;;18.00;61.10;;;;;;4993249;28;20019;-77
2024/04/06 04:45:57;;;;;;;;;;;18.00;60.90;;;;;;4992793;28;20013;-77
2024/04/06 04:48:23;;;;;;;;;;;17.90;60.90;;;;;;4992716;28;19918;-77
2024/04/06 04:50:49;;;;;;;;;;;17.90;60.90;;;;;;4992989;28;19968;-78
2024/04/06 04:53:15;;;;;;;;;;;17.90;60.80;;;;;;4992992;28;20250;-78
2024/04/06 04:55:41;;;;;;;;;;;17.90;61.10;;;;;;4992109;28;19917;-78
2024/04/06 04:58:08;;;;;;;;;;;17.90;61.00;;;;;;4992774;28;20423;-78
2024/04/06 05:00:34;;;;;;;;;;;17.90;61.00;;;;;;4992705;28;19968;-78
2024/04/06 05:03:00;;;;;;;;;;;17.90;60.90;;;;;;4993105;28;19910;-78
2024/04/06 05:05:26;;;;;;;;;;;17.90;61.10;;;;;;4992954;28;19921;-77
2024/04/06 05:07:52;;;;;;;;;;;17.90;61.10;;;;;;4992745;28;19937;-78
2024/04/06 05:10:18;;;;;;;;;;;17.90;60.90;;;;;;4992439;28;19994;-77
2024/04/06 05:12:44;;;;;;;;;;;17.90;61.00;;;;;;4992895;28;19954;-77
2024/04/06 05:15:10;;;;;;;;;;;17.90;60.90;;;;;;4992428;28;19910;-78
2024/04/06 05:17:37;;;;;;;;;;;17.90;61.00;;;;;;4992299;28;19921;-78
2024/04/06 05:20:05;;;;;;;;;;;17.90;60.90;;;;;;4992591;28;19917;-78
2024/04/06 05:22:31;;;;;;;;;;;17.90;60.70;;;;;;4992418;28;20029;-78
2024/04/06 05:24:57;;;;;;;;;;;17.90;60.90;;;;;;4992540;28;19922;-77
2024/04/06 05:27:24;;;;;;;;;;;17.90;60.90;;;;;;4992272;28;20076;-78
2024/04/06 05:29:49;;;;;;;;;;;17.90;61.00;;;;;;4992921;28;20332;-78
2024/04/06 05:32:15;;;;;;;;;;;17.60;60.60;;;;;;4992493;28;19945;-77
2024/04/06 05:34:40;;;;;;;;;;;17.90;61.20;;;;;;4991041;28;19996;-77
2024/04/06 05:37:06;;;;;;;;;;;17.80;60.10;;;;;;4991920;28;19921;-78
2024/04/06 05:39:32;;;;;;;;;;;17.90;61.10;;;;;;4992332;28;19996;-78
2024/04/06 05:41:57;;;;;;;;;;;17.80;61.00;;;;;;4992263;28;19918;-78
2024/04/06 05:44:23;;;;;;;;;;;17.90;61.00;;;;;;4992302;28;19916;-77
2024/04/06 05:46:49;;;;;;;;;;;17.90;60.80;;;;;;4992406;28;19929;-78
2024/04/06 05:49:14;;;;;;;;;;;17.80;61.00;;;;;;4992116;28;20273;-78
2024/04/06 05:51:40;;;;;;;;;;;17.80;60.80;;;;;;4992172;28;19964;-78
2024/04/06 05:54:05;;;;;;;;;;;18.60;61.30;;;;;;4992139;28;19910;-77
2024/04/06 05:56:31;;;;;;;;;;;17.80;61.00;;;;;;4992262;28;19910;-78
2024/04/06 05:58:56;;;;;;;;;;;17.90;61.00;;;;;;4992689;28;19914;-77
2024/04/06 06:01:22;;;;;;;;;;;17.80;61.00;;;;;;4992218;28;19909;-78
2024/04/06 06:03:48;;;;;;;;;;;17.80;61.00;;;;;;4992143;28;19937;-78
2024/04/06 06:06:13;;;;;;;;;;;17.80;61.00;;;;;;4992079;28;19910;-78
2024/04/06 06:08:39;;;;;;;;;;;17.80;61.30;;;;;;4995686;28;20392;-78
2024/04/06 06:11:05;;;;;;;;;;;17.80;61.20;;;;;;4995711;28;19960;-78
2024/04/06 06:13:30;;;;;;;;;;;17.80;61.20;;;;;;4995623;28;19917;-77
2024/04/06 06:15:56;;;;;;;;;;;17.80;61.10;;;;;;4995608;28;20317;-78
2024/04/06 06:18:22;;;;;;;;;;;17.80;61.00;;;;;;4995469;28;19993;-77
2024/04/06 06:20:48;;;;;;;;;;;17.80;61.20;;;;;;4995437;28;19995;-77
2024/04/06 06:23:13;;;;;;;;;;;17.80;61.20;;;;;;4995371;28;19916;-78
2024/04/06 06:25:39;;;;;;;;;;;17.80;61.20;;;;;;4995456;28;19921;-77
2024/04/06 06:28:05;;;;;;;;;;;17.80;61.20;;;;;;4995749;28;19918;-77
2024/04/06 06:30:30;;;;;;;;;;;17.80;61.20;;;;;;4995614;28;20135;-78
2024/04/06 06:32:57;;;;;;;;;;;17.80;61.20;;;;;;4995274;28;19910;-78
2024/04/06 06:35:22;;;;;;;;;;;17.80;61.10;;;;;;4995278;28;20032;-78
2024/04/06 06:37:48;;;;;;;;;;;17.90;60.60;;;;;;4995102;28;20424;-77
2024/04/06 06:40:13;;;;;;;;;;;17.40;60.90;;;;;;4995176;28;20008;-77
2024/04/06 06:42:39;;;;;;;;;;;17.90;61.20;;;;;;4995246;28;19910;-77
2024/04/06 06:45:08;;;;;;;;;;;18.40;61.40;;;;;;4995055;28;19921;-77
2024/04/06 06:47:34;;;;;;;;;;;17.60;60.60;;;;;;4995137;28;20277;-78
2024/04/06 06:50:00;;;;;;;;;;;18.00;60.60;;;;;;4994952;28;19909;-77
2024/04/06 06:52:26;;;;;;;;;;;17.90;61.00;;;;;;4997801;28;19933;-77
2024/04/06 06:54:51;;;;;;;;;;;17.90;61.30;;;;;;4997791;28;19910;-76
2024/04/06 06:57:17;;;;;;;;;;;17.90;61.30;;;;;;4995349;28;19949;-77
2024/04/06 06:59:42;;;;;;;;;;;18.00;61.20;;;;;;4993438;28;19910;-76
2024/04/06 07:02:08;;;;;;;;;;;18.00;61.50;;;;;;4993442;28;19909;-76
2024/04/06 07:04:35;;;;;;;;;;;18.00;61.20;;;;;;4994685;28;19960;-75
2024/04/06 07:07:01;;;;;;;;;;;18.00;61.20;;;;;;4994615;28;19918;-76
2024/04/06 07:09:26;;;;;;;;;;;18.10;61.30;;;;;;4994585;28;19914;-75
2024/04/06 07:11:52;;;;;;;;;;;18.10;61.40;;;;;;4994612;28;19945;-76
2024/04/06 07:14:17;;;;;;;;;;;18.10;61.60;;;;;;4994585;28;19910;-80
2024/04/06 07:16:43;;;;;;;;;;;18.10;61.80;;;;;;4994528;28;19910;-81
2024/04/06 07:19:09;;;;;;;;;;;18.10;62.20;;;;;;4993961;28;19913;-79
2024/04/06 07:21:35;;;;;;;;;;;18.10;61.70;;;;;;4994301;28;19914;-79
2024/04/06 07:24:01;;;;;;;;;;;18.20;61.90;;;;;;4995081;28;19964;-79
2024/04/06 07:26:26;;;;;;;;;;;18.10;61.80;;;;;;4994277;28;20319;-79
2024/04/06 07:28:52;;;;;;;;;;;18.10;61.90;;;;;;4994319;28;19910;-79
2024/04/06 07:31:17;;;;;;;;;;;18.10;62.00;;;;;;4994220;28;19915;-78
2024/04/06 07:33:43;;;;;;;;;;;18.10;62.10;;;;;;4994025;28;19956;-78
2024/04/06 07:36:08;;;;;;;;;;;18.20;61.60;;;;;;4994146;28;19909;-78
2024/04/06 07:38:34;;;;;;;;;;;18.20;62.30;;;;;;4993813;28;20009;-81
2024/04/06 07:41:00;;;;;;;;;;;18.20;62.60;;;;;;4993969;28;19909;-79
2024/04/06 07:43:26;;;;;;;;;;;18.20;62.40;;;;;;4993892;28;19916;-79
2024/04/06 07:45:52;;;;;;;;;;;18.20;63.20;;;;;;4993810;28;19968;-79
2024/04/06 07:48:17;;;;;;;;;;;18.20;62.80;;;;;;4993965;28;19964;-80
2024/04/06 07:50:46;;;;;;;;;;;18.20;62.80;;;;;;4993781;28;19964;-81
2024/04/06 07:53:12;;;;;;;;;;;18.20;62.30;;;;;;4994312;28;19968;-80
2024/04/06 07:55:38;;;;;;;;;;;18.20;62.80;;;;;;4993570;28;19949;-80
2024/04/06 07:58:03;;;;;;;;;;;18.20;63.00;;;;;;4993646;28;20281;-80
2024/04/06 08:00:29;;;;;;;;;;;18.20;63.10;;;;;;4993521;28;19921;-81
2024/04/06 08:02:54;;;;;;;;;;;18.30;63.20;;;;;;4993631;28;19957;-81
2024/04/06 08:05:20;;;;;;;;;;;18.30;63.40;;;;;;4993557;28;20381;-79
2024/04/06 08:07:45;;;;;;;;;;;18.30;63.20;;;;;;5008395;28;20034;-75
2024/04/06 08:10:15;;;;;;;;;;;18.30;63.50;;;;;;4998816;28;20033;-81
2024/04/06 08:12:43;;;;;;;;;;;18.30;62.90;;;;;;4993323;28;19910;-80
2024/04/06 08:15:12;;;;;;;;;;;18.30;62.90;;;;;;4992052;28;19913;-78
2024/04/06 08:17:41;;;;;;;;;;;18.30;63.00;;;;;;4993474;28;19910;-80
2024/04/06 08:20:07;;;;;;;;;;;18.40;63.60;;;;;;4993307;28;19913;-78
2024/04/06 08:22:32;;;;;;;;;;;17.80;63.40;;;;;;4993642;28;19916;-81
2024/04/06 08:24:58;;;;;;;;;;;18.40;63.80;;;;;;5008101;28;20005;-78
2024/04/06 08:27:24;;;;;;;;;;;18.40;63.80;;;;;;4993007;28;19918;-77
2024/04/06 08:29:49;;;;;;;;;;;18.40;64.00;;;;;;4993159;28;19910;-80
2024/04/06 08:32:15;;;;;;;;;;;18.50;63.90;;;;;;4993160;28;20000;-80
2024/04/06 08:34:42;;;;;;;;;;;18.50;64.00;;;;;;4993053;28;19910;-78
2024/04/06 08:37:08;;;;;;;;;;;18.50;63.90;;;;;;4992756;28;19980;-81
2024/04/06 08:39:34;;;;;;;;;;;18.50;64.00;;;;;;4993035;28;20352;-75
2024/04/06 08:42:01;;;;;;;;;;;18.60;64.00;;;;;;4992805;28;20004;-77
2024/04/06 08:44:45;;;;;;;;;;;18.60;64.10;;;;;;4993113;28;19917;-79
2024/04/06 08:47:13;;;;;;;;;;;18.60;63.70;;;;;;4992693;28;20348;-79
2024/04/06 08:49:38;;;;;;;;;;;18.70;64.10;;;;;;4993269;28;19910;-80
2024/04/06 08:52:04;;;;;;;;;;;18.60;64.00;;;;;;4991312;28;19909;-79
2024/04/06 08:54:30;;;;;;;;;;;18.70;64.20;;;;;;4992706;28;19913;-81
2024/04/06 08:56:59;;;;;;;;;;;18.70;64.30;;;;;;4992603;28;19910;-77
2024/04/06 08:59:25;;;;;;;;;;;18.70;64.40;;;;;;4992661;28;19921;-79
2024/04/06 09:01:51;;;;;;;;;;;18.80;64.20;;;;;;4992731;28;19910;-81
2024/04/06 09:04:16;;;;;;;;;;;18.80;64.30;;;;;;4992563;28;19949;-80
2024/04/06 09:06:44;;;;;;;;;;;18.80;64.40;;;;;;4992552;28;19975;-75
2024/04/06 09:09:10;;;;;;;;;;;18.90;63.90;;;;;;4992396;28;19921;-75
2024/04/06 09:11:39;;;;;;;;;;;18.90;64.30;;;;;;4992521;28;19909;-75
2024/04/06 09:14:05;;;;;;;;;;;18.90;63.60;;;;;;4992608;28;19996;-81
2024/04/06 09:16:30;;;;;;;;;;;18.90;64.00;;;;;;4992552;28;20003;-81
2024/04/06 09:18:56;;;;;;;;;;;19.00;64.00;;;;;;4992524;28;20444;-79
2024/04/06 09:21:21;;;;;;;;;;;19.00;64.20;;;;;;4992649;28;19917;-77
2024/04/06 09:23:51;;;;;;;;;;;19.00;64.10;;;;;;4992743;28;19910;-81
2024/04/06 09:26:20;;;;;;;;;;;19.00;63.40;;;;;;4991059;28;19936;-77
2024/04/06 09:28:53;;;;;;;;;;;19.10;63.50;;;;;;4992439;28;19945;-82
2024/04/06 09:31:25;;;;;;;;;;;19.10;63.70;;;;;;4992419;28;19910;-82
2024/04/06 09:33:54;;;;;;;;;;;19.10;63.80;;;;;;4992391;28;20373;-82
2024/04/06 09:36:20;;;;;;;;;;;19.20;63.40;;;;;;4992467;28;19941;-80
2024/04/06 09:38:49;;;;;;;;;;;19.20;64.10;;;;;;4992861;28;19921;-80
2024/04/06 09:41:19;;;;;;;;;;;19.20;63.70;;;;;;4992445;28;19910;-79
2024/04/06 09:43:45;;;;;;;;;;;19.30;63.90;;;;;;4996211;28;19910;-78
2024/04/06 09:46:11;;;;;;;;;;;19.30;64.10;;;;;;4996156;28;20284;-81
2024/04/06 09:48:37;;;;;;;;;;;19.30;64.10;;;;;;4996047;28;19921;-79
2024/04/06 09:51:03;;;;;;;;;;;19.50;64.00;;;;;;4996045;28;20280;-80
2024/04/06 09:53:29;;;;;;;;;;;19.40;63.80;;;;;;4996100;28;19910;-80
2024/04/06 09:55:54;;;;;;;;;;;19.40;64.20;;;;;;4996536;28;19917;-83
2024/04/06 09:58:28;;;;;;;;;;;19.50;64.20;;;;;;4996117;28;19909;-83
2024/04/06 10:00:54;;;;;;;;;;;19.40;63.60;;;;;;4996081;28;19910;-84
2024/04/06 10:03:32;;;;;;;;;;;19.50;64.00;;;;;;4995833;28;19964;-83
2024/04/06 10:06:07;;;;;;;;;;;19.50;63.90;;;;;;4996079;28;19997;-85
2024/04/06 10:08:33;;;;;;;;;;;19.50;64.10;;;;;;4995800;28;19918;-84
2024/04/06 10:10:59;;;;;;;;;;;19.50;64.20;;;;;;4995865;28;19916;-79
2024/04/06 10:13:25;;;;;;;;;;;19.60;64.20;;;;;;4995794;28;20312;-85
2024/04/06 10:15:50;;;;;;;;;;;19.70;64.40;;;;;;4995946;28;19943;-85
2024/04/06 10:18:16;;;;;;;;;;;19.70;64.40;;;;;;4995606;28;20555;-82
2024/04/06 10:20:43;;;;;;;;;;;19.70;64.20;;;;;;4995647;28;19916;-84
2024/04/06 10:23:12;;;;;;;;;;;19.70;63.90;;;;;;4996029;28;19910;-80
2024/04/06 10:25:38;;;;;;;;;;;19.80;64.00;;;;;;4995595;28;20365;-81
2024/04/06 10:28:07;;;;;;;;;;;19.80;63.90;;;;;;4995316;28;19925;-81
2024/04/06 10:30:34;;;;;;;;;;;19.90;63.50;;;;;;4995257;28;19910;-81
2024/04/06 10:32:59;;;;;;;;;;;20.00;63.70;;;;;;4995289;28;19909;-82
2024/04/06 10:35:26;;;;;;;;;;;20.00;63.60;;;;;;4995454;28;19932;-82
2024/04/06 10:37:51;;;;;;;;;;;20.10;63.60;;;;;;4995066;28;19929;-81
2024/04/06 10:40:18;;;;;;;;;;;20.20;63.30;;;;;;4995331;28;19913;-78
2024/04/06 10:42:44;;;;;;;;;;;20.20;63.10;;;;;;4995147;28;20048;-76
2024/04/06 10:45:11;;;;;;;;;;;20.30;63.10;;;;;;4995329;28;19961;-77
2024/04/06 10:47:40;;;;;;;;;;;20.30;63.00;;;;;;4994914;28;19956;-82
2024/04/06 10:50:07;;;;;;;;;;;20.40;62.40;;;;;;4994943;28;19956;-81
2024/04/06 10:52:32;;;;;;;;;;;20.40;62.70;;;;;;4995679;28;20000;-75
2024/04/06 10:55:08;;;;;;;;;;;20.40;62.70;;;;;;4993966;28;20013;-75
2024/04/06 10:57:34;;;;;;;;;;;20.40;62.30;;;;;;4994756;28;19910;-73
2024/04/06 10:59:59;;;;;;;;;;;20.50;62.30;;;;;;4994873;28;19917;-75
2024/04/06 11:02:25;;;;;;;;;;;20.60;61.90;;;;;;4994661;28;19910;-73
2024/04/06 11:04:50;;;;;;;;;;;20.70;61.80;;;;;;4994809;28;20408;-74
2024/04/06 11:07:16;;;;;;;;;;;20.70;61.50;;;;;;4994643;28;19929;-74
2024/04/06 11:09:41;;;;;;;;;;;20.80;61.20;;;;;;4994532;28;20387;-74
2024/04/06 11:12:07;;;;;;;;;;;20.90;59.90;;;;;;4993102;28;19999;-75
2024/04/06 11:14:33;;;;;;;;;;;20.90;60.50;;;;;;4994407;28;19910;-76
2024/04/06 11:17:01;;;;;;;;;;;21.00;60.10;;;;;;4994463;28;20388;-74
2024/04/06 11:19:29;;;;;;;;;;;21.00;59.90;;;;;;4994360;28;19920;-73
2024/04/06 11:21:54;;;;;;;;;;;21.00;60.20;;;;;;4994769;28;19909;-73
2024/04/06 11:24:20;;;;;;;;;;;21.00;60.10;;;;;;4994371;28;20399;-72
2024/04/06 11:26:45;;;;;;;;;;;21.10;60.00;;;;;;4994295;28;19972;-73
2024/04/06 11:29:13;;;;;;;;;;;20.90;59.40;;;;;;4994239;28;19964;-76
2024/04/06 11:31:38;;;;;;;;;;;21.10;59.90;;;;;;5008944;28;19949;-75
2024/04/06 11:34:04;;;;;;;;;;;21.10;59.90;;;;;;4994178;28;19965;-75
2024/04/06 11:36:30;;;;;;;;;;;21.10;59.20;;;;;;4993773;28;19968;-76
2024/04/06 11:38:55;;;;;;;;;;;21.10;59.50;;;;;;4994161;28;19910;-76
2024/04/06 11:41:21;;;;;;;;;;;21.20;59.90;;;;;;4993946;28;20284;-77
2024/04/06 11:43:46;;;;;;;;;;;21.20;59.20;;;;;;4993918;28;19945;-76
2024/04/06 11:46:12;;;;;;;;;;;21.20;59.10;;;;;;4993930;28;19936;-76
2024/04/06 11:48:37;;;;;;;;;;;21.30;59.80;;;;;;4994268;28;20367;-79
2024/04/06 11:51:03;;;;;;;;;;;21.30;59.30;;;;;;4993996;28;19910;-79
2024/04/06 11:53:34;;;;;;;;;;;21.30;59.20;;;;;;4993776;28;19909;-79
2024/04/06 11:56:00;;;;;;;;;;;21.20;58.90;;;;;;5000309;28;19910;-79
2024/04/06 11:58:25;;;;;;;;;;;21.30;59.50;;;;;;4993713;28;19910;-79
2024/04/06 12:00:51;;;;;;;;;;;21.30;59.20;;;;;;4993892;28;19910;-79
2024/04/06 12:03:16;;;;;;;;;;;21.30;59.60;;;;;;4993734;28;20292;-80
2024/04/06 12:05:42;;;;;;;;;;;21.30;59.50;;;;;;4993497;28;19910;-80
2024/04/06 12:08:07;;;;;;;;;;;21.30;59.00;;;;;;4993516;28;20304;-77
2024/04/06 12:10:34;;;;;;;;;;;21.30;59.30;;;;;;5008585;28;19916;-77
2024/04/06 12:12:59;;;;;;;;;;;21.30;59.20;;;;;;4993420;28;19909;-77
2024/04/06 12:15:25;;;;;;;;;;;21.30;59.40;;;;;;4993420;28;19909;-77
2024/04/06 12:17:50;;;;;;;;;;;21.30;59.50;;;;;;4993810;28;19941;-77
2024/04/06 12:20:16;;;;;;;;;;;21.30;59.40;;;;;;4993473;28;19914;-77
2024/04/06 12:22:41;;;;;;;;;;;21.30;59.40;;;;;;4993410;28;19909;-77
2024/04/06 12:25:07;;;;;;;;;;;21.30;59.70;;;;;;4993267;28;19937;-77
2024/04/06 12:27:32;;;;;;;;;;;21.30;59.60;;;;;;4993149;28;19917;-77
2024/04/06 12:29:58;;;;;;;;;;;21.20;59.70;;;;;;4993335;28;19945;-77
2024/04/06 12:32:25;;;;;;;;;;;21.30;59.70;;;;;;4993151;28;20381;-77
2024/04/06 12:34:50;;;;;;;;;;;21.20;60.00;;;;;;4993096;28;19964;-77
2024/04/06 12:37:17;;;;;;;;;;;21.20;58.90;;;;;;4992831;28;19931;-78
2024/04/06 12:39:42;;;;;;;;;;;21.30;59.10;;;;;;4993350;28;19909;-77
2024/04/06 12:42:08;;;;;;;;;;;21.30;59.40;;;;;;4993178;28;19917;-77
2024/04/06 12:44:34;;;;;;;;;;;21.30;59.30;;;;;;4993032;28;19964;-75
2024/04/06 12:47:00;;;;;;;;;;;21.40;59.20;;;;;;4993330;28;20360;-77
2024/04/06 12:49:26;;;;;;;;;;;21.40;58.70;;;;;;4993001;28;19910;-77
2024/04/06 12:51:51;;;;;;;;;;;21.40;58.60;;;;;;4993243;28;20371;-77
2024/04/06 12:54:16;;;;;;;;;;;21.50;58.30;;;;;;4992932;28;19917;-76
2024/04/06 12:59:26;;;;;;;;;;;21.60;57.70;;;;;;4999762;28;20339;-77
2024/04/06 13:01:51;;;;;;;;;;;21.70;57.20;;;;;;5007901;28;19949;-77
2024/04/06 13:04:17;;;;;;;;;;;21.80;57.20;;;;;;4991454;28;20004;-77
2024/04/06 13:06:42;;;;;;;;;;;21.90;57.00;;;;;;4992494;28;20340;-77
2024/04/06 13:09:08;;;;;;;;;;;22.00;56.60;;;;;;4992846;28;19920;-77
2024/04/06 13:11:35;;;;;;;;;;;22.00;56.50;;;;;;4992864;28;19910;-78
2024/04/06 13:14:02;;;;;;;;;;;22.10;55.50;;;;;;4993251;28;20086;-78
2024/04/06 13:16:27;;;;;;;;;;;22.20;55.20;;;;;;4993233;28;19910;-78
2024/04/06 13:18:54;;;;;;;;;;;22.20;55.00;;;;;;4996843;28;19910;-78
2024/04/06 13:21:19;;;;;;;;;;;22.20;55.10;;;;;;4996864;28;19933;-78
2024/04/06 13:23:45;;;;;;;;;;;22.30;55.40;;;;;;4996871;28;19917;-78
2024/04/06 13:26:11;;;;;;;;;;;22.40;54.70;;;;;;5011742;28;20383;-77
2024/04/06 13:28:37;;;;;;;;;;;22.40;53.60;;;;;;4996779;28;20017;-78
2024/04/06 13:31:07;;;;;;;;;;;22.40;53.90;;;;;;4996603;28;19994;-78
2024/04/06 13:33:36;;;;;;;;;;;22.50;54.10;;;;;;4996755;28;19976;-78
2024/04/06 13:36:03;;;;;;;;;;;21.90;50.50;;;;;;4996224;28;20380;-77
2024/04/06 13:38:29;;;;;;;;;;;22.50;52.20;;;;;;4996184;28;19932;-78
2024/04/06 13:40:55;;;;;;;;;;;22.50;53.30;;;;;;4996527;28;20320;-78
2024/04/06 13:43:21;;;;;;;;;;;22.50;53.30;;;;;;4996924;28;19945;-77
2024/04/06 13:45:47;;;;;;;;;;;22.60;53.40;;;;;;4996070;28;19961;-77
2024/04/06 13:48:13;;;;;;;;;;;22.60;52.20;;;;;;4996224;28;20284;-77
2024/04/06 13:50:43;;;;;;;;;;;22.50;53.00;;;;;;4996130;28;19940;-78
2024/04/06 13:53:12;;;;;;;;;;;22.50;51.60;;;;;;4996417;28;19952;-77
2024/04/06 13:55:38;;;;;;;;;;;22.60;52.60;;;;;;4996011;28;19910;-80
2024/04/06 13:58:04;;;;;;;;;;;22.60;52.00;;;;;;4995711;28;19957;-81
2024/04/06 14:00:30;;;;;;;;;;;22.60;52.50;;;;;;4996138;28;19914;-83
2024/04/06 14:02:56;;;;;;;;;;;22.60;52.90;;;;;;4996204;28;19916;-82
2024/04/06 14:05:24;;;;;;;;;;;22.60;52.50;;;;;;4995806;28;20343;-82
2024/04/06 14:07:50;;;;;;;;;;;22.60;52.30;;;;;;4996026;28;19918;-77
2024/04/06 14:10:16;;;;;;;;;;;22.60;52.40;;;;;;4995546;28;19963;-79
2024/04/06 14:12:42;;;;;;;;;;;22.60;51.60;;;;;;4996160;28;19910;-77